Time;durP1;ratioP1;P1;durP2;ratioP2;P2;SDS_P1;SDS_P2;PMS_P1;PMS_P2;Temp;Humidity;BMP_temperature;BMP_pressure;BME280_temperature;BME280_humidity;BME280_pressure;Samples;Min_cycle;Max_cycle;Signal;HPM_P1;HPM_P2
2022/11/04 00:01:20;;;;;;;6.32;2.97;;;;;;;12.20;100.00;99697.72;5043641;28;20458;-74
2022/11/04 00:03:47;;;;;;;4.38;2.38;;;;;;;12.17;100.00;99709.66;5044691;28;20064;-72
2022/11/04 00:06:14;;;;;;;0.98;0.63;;;;;;;12.04;100.00;99722.66;5044763;28;20056;-72
2022/11/04 00:08:40;;;;;;;2.08;1.35;;;;;;;12.04;100.00;99747.59;5037838;28;20048;-72
2022/11/04 00:13:53;;;;;;;3.47;1.60;;;;;;;12.01;100.00;99744.88;5035275;28;20055;-72
2022/11/04 00:19:05;;;;;;;2.38;1.15;;;;;;;12.05;100.00;99748.38;5039569;28;20099;-74
2022/11/04 00:28:41;;;;;;;5.25;2.47;;;;;;;12.09;100.00;99746.31;5045030;28;20049;-72
2022/11/04 00:30:09;;;;;;;4.20;2.10;;;;;;;12.02;100.00;99768.66;5033467;28;20052;-74
2022/11/04 00:35:21;;;;;;;5.93;2.08;;;;;;;12.04;100.00;99766.22;5037107;28;20770;-73
2022/11/04 00:37:47;;;;;;;5.22;2.17;;;;;;;12.04;100.00;99771.75;5037570;28;20528;-74
2022/11/04 00:40:15;;;;;;;7.65;2.80;;;;;;;12.08;100.00;99789.13;5039252;28;20053;-76
2022/11/04 00:42:45;;;;;;;5.75;1.58;;;;;;;12.05;100.00;99789.97;5043827;28;20044;-75
2022/11/04 00:45:12;;;;;;;4.88;2.30;;;;;;;12.10;100.00;99786.69;5043145;28;20048;-74
2022/11/04 00:47:38;;;;;;;5.03;1.58;;;;;;;12.03;100.00;99797.94;5038071;28;20040;-75
2022/11/04 00:50:05;;;;;;;3.30;1.10;;;;;;;12.01;100.00;99800.34;5045635;28;20052;-75
2022/11/04 00:52:32;;;;;;;6.35;2.28;;;;;;;12.04;100.00;99780.88;5037226;28;20049;-74
2022/11/04 00:54:58;;;;;;;1.98;1.35;;;;;;;12.04;100.00;99794.72;5041086;28;20045;-72
2022/11/04 00:57:24;;;;;;;2.92;1.45;;;;;;;11.99;100.00;99798.03;5042374;28;20045;-72
2022/11/04 00:59:51;;;;;;;4.63;1.42;;;;;;;12.04;100.00;99796.72;5033517;28;20107;-72
2022/11/04 01:02:17;;;;;;;2.33;1.40;;;;;;;12.03;100.00;99809.81;5038133;28;20060;-73
2022/11/04 01:04:45;;;;;;;3.45;1.30;;;;;;;12.01;100.00;99808.66;5038755;28;20052;-72
2022/11/04 01:07:12;;;;;;;5.05;2.10;;;;;;;12.03;100.00;99811.78;5045297;28;20515;-74
2022/11/04 01:09:38;;;;;;;9.10;2.92;;;;;;;12.12;100.00;99807.22;5040660;28;20044;-74
2022/11/04 01:12:05;;;;;;;6.47;2.83;;;;;;;12.07;100.00;99818.81;5049873;28;20048;-72
2022/11/04 01:14:31;;;;;;;12.27;3.20;;;;;;;12.15;100.00;99825.00;5046180;28;20041;-72
2022/11/04 01:16:57;;;;;;;8.20;2.83;;;;;;;12.08;100.00;99830.72;5036316;28;20052;-72
2022/11/04 01:19:24;;;;;;;7.63;2.95;;;;;;;12.11;100.00;99827.84;5042423;28;20052;-73
2022/11/04 01:21:51;;;;;;;3.17;1.98;;;;;;;12.09;100.00;99837.81;5037691;28;20322;-74
2022/11/04 01:24:18;;;;;;;10.10;2.95;;;;;;;12.10;100.00;99837.38;5045356;28;20465;-72
2022/11/04 01:26:45;;;;;;;5.55;2.00;;;;;;;12.06;100.00;99847.78;5048771;28;20057;-71
2022/11/04 01:29:11;;;;;;;3.75;1.73;;;;;;;12.11;100.00;99843.69;5043198;28;20463;-74
2022/11/04 01:31:38;;;;;;;4.70;2.10;;;;;;;12.08;100.00;99850.13;5037316;28;20782;-75
2022/11/04 01:34:04;;;;;;;3.50;2.08;;;;;;;12.08;100.00;99850.13;5040670;28;20044;-75
2022/11/04 01:36:31;;;;;;;3.15;1.30;;;;;;;11.95;100.00;99847.19;5044746;28;20780;-73
2022/11/04 01:38:57;;;;;;;4.53;2.53;;;;;;;12.05;100.00;99842.66;5034044;28;20049;-73
2022/11/04 01:41:26;;;;;;;7.63;2.97;;;;;;;11.89;100.00;99862.78;5046277;28;20425;-73
2022/11/04 01:44:23;;;;;;;10.85;3.13;;;;;;;11.89;100.00;99856.44;5039600;28;20056;-73
2022/11/04 01:46:52;;;;;;;5.07;2.33;;;;;;;11.91;100.00;99856.81;5034890;28;20114;-72
2022/11/04 01:49:32;;;;;;;5.22;2.63;;;;;;;11.96;100.00;99864.63;5042922;28;20091;-72
2022/11/04 01:52:05;;;;;;;7.45;2.72;;;;;;;11.96;100.00;99859.06;5040907;28;20052;-73
2022/11/04 01:54:33;;;;;;;4.03;1.92;;;;;;;11.87;100.00;99856.06;5037099;28;20072;-74
2022/11/04 01:57:04;;;;;;;6.63;2.78;;;;;;;11.89;100.00;99861.97;5042568;28;20048;-73
2022/11/04 01:59:38;;;;;;;6.40;2.10;;;;;;;11.92;100.00;99850.81;5039535;28;20151;-73
2022/11/04 02:02:06;;;;;;;5.05;2.15;;;;;;;11.83;100.00;99863.69;5045503;28;20056;-73
2022/11/04 02:04:33;;;;;;;8.45;3.63;;;;;;;11.90;100.00;99869.88;5049184;28;20603;-74
2022/11/04 02:07:04;;;;;;;10.88;4.18;;;;;;;11.95;100.00;99871.38;5031106;28;20049;-72
2022/11/04 02:09:32;;;;;;;8.32;2.97;;;;;;;11.93;100.00;99873.78;5044074;28;20049;-71
2022/11/04 02:14:46;;;;;;;9.13;3.95;;;;;;;12.02;100.00;99885.09;5036445;28;20155;-72
2022/11/04 02:17:19;;;;;;;5.57;2.78;;;;;;;11.96;100.00;99895.09;5031853;28;20045;-74
2022/11/04 02:20:06;;;;;;;12.85;4.43;;;;;;;12.00;100.00;99879.19;5045616;28;20512;-74
2022/11/04 02:22:47;;;;;;;4.22;2.17;;;;;;;12.03;100.00;99870.00;5034392;28;20052;-72
2022/11/04 02:25:52;;;;;;;9.13;3.35;;;;;;;11.91;100.00;99873.44;5038796;28;20057;-74
2022/11/04 02:28:43;;;;;;;5.55;2.70;;;;;;;11.90;100.00;99874.63;5045225;28;20053;-74
2022/11/04 02:31:17;;;;;;;4.15;2.13;;;;;;;12.00;100.00;99873.63;5062176;28;20079;-71
2022/11/04 02:33:58;;;;;;;8.35;3.00;;;;;;;11.89;100.00;99865.53;5067566;28;20106;-72
2022/11/04 02:36:56;;;;;;;12.90;4.13;;;;;;;12.00;100.00;99865.31;5057349;28;20048;-74
2022/11/04 02:39:33;;;;;;;2.47;1.55;;;;;;;11.87;100.00;99867.16;5057941;28;20133;-71
2022/11/04 02:42:08;;;;;;;2.17;1.65;;;;;;;11.88;100.00;99861.19;5056805;28;20040;-74
2022/11/04 02:44:48;;;;;;;9.50;3.38;;;;;;;11.86;100.00;99858.09;5061392;28;20135;-69
2022/11/04 02:47:20;;;;;;;7.72;3.13;;;;;;;11.77;100.00;99873.69;5053606;28;20051;-73
2022/11/04 02:50:05;;;;;;;8.50;3.70;;;;;;;11.76;100.00;99863.81;5059179;28;20563;-74
2022/11/04 02:52:40;;;;;;;;;;;;;;;11.76;100.00;99872.94;5061730;28;20285;-70
2022/11/04 02:55:24;;;;;;;2.50;1.83;;;;;;;11.78;100.00;99864.94;5056500;28;19997;-74
2022/11/04 02:57:55;;;;;;;5.13;2.47;;;;;;;11.75;100.00;99881.66;5058881;28;20060;-70
2022/11/04 03:00:21;;;;;;;4.75;2.00;;;;;;;11.79;100.00;99874.06;5062885;28;20052;-72
2022/11/04 03:03:00;;;;;;;13.98;4.35;;;;;;;11.76;100.00;99878.47;5065739;28;20419;-72
2022/11/04 03:05:31;;;;;;;7.07;2.90;;;;;;;11.76;100.00;99883.22;5053331;28;20071;-71
2022/11/04 03:08:02;;;;;;;7.65;3.45;;;;;;;11.76;100.00;99883.22;5066933;28;20052;-72
2022/11/04 03:11:01;;;;;;;7.55;2.65;;;;;;;11.70;100.00;99888.47;5059923;28;20527;-72
2022/11/04 03:13:32;;;;;;;7.15;2.83;;;;;;;11.84;100.00;99884.63;5022870;28;20064;-71
2022/11/04 03:16:08;;;;;;;10.65;2.75;;;;;;;11.70;100.00;99890.44;5013709;28;20053;-71
2022/11/04 03:19:03;;;;;;;8.20;2.33;;;;;;;11.74;100.00;99885.66;5013978;28;20050;-72
2022/11/04 03:21:40;;;;;;;7.18;2.53;;;;;;;11.72;100.00;99891.63;5013804;28;20057;-70
2022/11/04 03:24:06;;;;;;;5.15;1.95;;;;;;;11.64;100.00;99898.47;5020207;28;20049;-71
2022/11/04 03:27:01;;;;;;;3.28;1.20;;;;;;;11.57;100.00;99892.25;5016670;28;20045;-72
2022/11/04 03:29:42;;;;;;;3.17;1.42;;;;;;;11.54;100.00;99902.19;5019004;28;20045;-72
2022/11/04 03:32:21;;;;;;;3.85;1.95;;;;;;;11.44;100.00;99899.63;5008862;28;20056;-72
2022/11/04 03:34:48;;;;;;;13.40;2.30;;;;;;;11.43;100.00;99893.28;5019946;28;20196;-72
2022/11/04 03:37:26;;;;;;;6.75;2.55;;;;;;;11.51;100.00;99907.81;5013465;28;20049;-74
2022/11/04 03:39:53;;;;;;;7.28;2.10;;;;;;;11.43;100.00;99903.59;5015405;28;20058;-71
2022/11/04 03:42:22;;;;;;;11.48;3.70;;;;;;;11.47;100.00;99907.84;5024019;28;20096;-72
2022/11/04 03:44:53;;;;;;;2.30;1.80;;;;;;;11.27;100.00;99911.78;5014460;28;20111;-73
2022/11/04 03:47:28;;;;;;;3.45;1.70;;;;;;;11.27;100.00;99911.78;5022397;28;20090;-70
2022/11/04 03:50:00;;;;;;;;;;;;;;;11.33;100.00;99916.41;5034729;28;20048;-70
2022/11/04 03:52:26;;;;;;;10.90;2.72;;;;;;;11.30;100.00;99916.50;5050726;28;19924;-73
2022/11/04 03:54:53;;;;;;;10.75;2.58;;;;;;;11.11;100.00;99925.50;5050227;28;20063;-73
2022/11/04 03:57:49;;;;;;;10.48;3.53;;;;;;;11.21;100.00;99938.38;5063154;28;20490;-74
2022/11/04 04:00:19;;;;;;;8.77;1.38;;;;;;;11.13;100.00;99932.16;5060706;28;20051;-74
2022/11/04 04:03:01;;;;;;;9.30;2.70;;;;;;;11.16;100.00;99938.84;5064121;28;20059;-72
2022/11/04 04:05:37;;;;;;;9.52;2.80;;;;;;;11.15;100.00;99945.59;5059781;28;20467;-71
2022/11/04 04:08:16;;;;;;;5.43;2.10;;;;;;;11.15;100.00;99940.84;5053621;28;20163;-72
2022/11/04 04:11:11;;;;;;;10.45;2.83;;;;;;;11.14;100.00;99939.25;5063853;28;20048;-74
2022/11/04 04:13:47;;;;;;;7.18;2.10;;;;;;;11.02;100.00;99933.53;5060046;28;20044;-72
2022/11/04 04:16:40;;;;;;;5.30;1.63;;;;;;;11.08;100.00;99937.41;5061819;28;20044;-71
2022/11/04 04:19:13;;;;;;;1.48;0.90;;;;;;;11.05;100.00;99941.00;5065225;28;20051;-72
2022/11/04 04:22:01;;;;;;;4.07;1.45;;;;;;;11.06;100.00;99935.06;5054396;28;20080;-71
2022/11/04 04:27:30;;;;;;;4.20;0.93;;;;;;;10.94;100.00;99934.84;5059968;28;20508;-72
2022/11/04 04:30:07;;;;;;;6.25;2.35;;;;;;;10.97;100.00;99932.00;5058723;28;20060;-69
2022/11/04 04:32:42;;;;;;;2.85;1.23;;;;;;;10.87;100.00;99932.19;5055377;28;20052;-72
2022/11/04 04:44:58;;;;;;;10.95;2.20;;;;;;;10.95;100.00;99931.66;5062883;28;20053;-73
2022/11/04 04:46:30;;;;;;;1.23;0.65;;;;;;;10.88;100.00;99937.31;5056911;28;20044;-72
2022/11/04 04:49:05;;;;;;;11.95;2.60;;;;;;;10.91;100.00;99949.53;5061769;28;20106;-72
2022/11/04 04:51:33;;;;;;;0.95;0.80;;;;;;;10.74;100.00;99942.25;5058116;28;20049;-71
2022/11/04 04:54:00;;;;;;;6.70;1.70;;;;;;;10.74;100.00;99945.03;5067102;28;20063;-71
2022/11/04 04:56:27;;;;;;;9.82;2.38;;;;;;;10.80;100.00;99959.97;5063039;28;20063;-72
2022/11/04 04:58:53;;;;;;;8.48;2.17;;;;;;;10.81;100.00;99964.28;5064966;28;20503;-72
2022/11/04 05:01:20;;;;;;;6.10;2.38;;;;;;;10.66;100.00;99971.22;5062069;28;20048;-72
2022/11/04 05:03:46;;;;;;;10.38;2.00;;;;;;;10.69;100.00;99979.47;5065830;28;20135;-72
2022/11/04 05:06:13;;;;;;;10.18;2.55;;;;;;;10.73;100.00;99982.97;5060484;28;20048;-72
2022/11/04 05:08:42;;;;;;;8.48;2.30;;;;;;;10.67;100.00;99972.78;5066642;28;20044;-72
2022/11/04 05:11:12;;;;;;;7.63;2.67;;;;;;;10.65;100.00;99980.72;5066847;28;20099;-72
2022/11/04 05:13:39;;;;;;;13.95;2.47;;;;;;;10.63;100.00;99983.88;5064688;28;20505;-72
2022/11/04 05:16:12;;;;;;;7.82;2.38;;;;;;;10.60;100.00;99989.47;5057192;28;20059;-72
2022/11/04 05:18:38;;;;;;;8.88;2.42;;;;;;;10.61;100.00;99982.75;5059059;28;20064;-74
2022/11/04 05:21:10;;;;;;;7.97;2.20;;;;;;;10.52;100.00;99986.00;5065232;28;20048;-71
2022/11/04 05:23:46;;;;;;;8.02;2.95;;;;;;;10.55;100.00;99993.50;5062180;28;20048;-71
2022/11/04 05:26:14;;;;;;;5.03;2.20;;;;;;;10.52;100.00;100004.63;5061475;28;20053;-72
2022/11/04 05:28:40;;;;;;;0.45;0.45;;;;;;;10.42;100.00;100004.31;5066371;28;20052;-72
2022/11/04 05:31:10;;;;;;;10.82;3.15;;;;;;;10.52;100.00;100002.59;5067492;28;20411;-72
2022/11/04 05:33:37;;;;;;;11.52;2.83;;;;;;;10.51;100.00;100003.81;5067356;28;20136;-72
2022/11/04 05:36:06;;;;;;;9.45;2.80;;;;;;;10.53;100.00;100010.50;5067025;28;20780;-72
2022/11/04 05:38:33;;;;;;;11.20;2.65;;;;;;;10.46;100.00;100007.81;5066708;28;20083;-74
2022/11/04 05:40:59;;;;;;;13.70;3.47;;;;;;;10.45;100.00;100013.75;5067757;28;20064;-74
2022/11/04 05:43:26;;;;;;;9.45;2.65;;;;;;;10.46;100.00;100016.13;5062399;28;20185;-71
2022/11/04 05:45:53;;;;;;;11.85;3.42;;;;;;;10.47;100.00;100023.22;5069089;28;20052;-74
2022/11/04 05:48:19;;;;;;;6.50;2.15;;;;;;;10.43;100.00;100016.94;5063844;28;20044;-71
2022/11/04 05:50:47;;;;;;;10.77;2.83;;;;;;;10.41;100.00;100024.09;5065335;28;20098;-74
2022/11/04 05:53:14;;;;;;;10.70;2.47;;;;;;;10.44;100.00;100024.03;5055677;28;20053;-74
2022/11/04 05:55:40;;;;;;;14.35;3.38;;;;;;;10.48;100.00;100026.75;5064933;28;20059;-72
2022/11/04 05:58:06;;;;;;;10.88;3.10;;;;;;;10.50;100.00;100043.75;5056638;28;20059;-74
2022/11/04 06:00:36;;;;;;;9.93;2.58;;;;;;;10.52;100.00;100039.34;5054097;28;20052;-72
2022/11/04 06:03:04;;;;;;;12.45;3.60;;;;;;;10.54;100.00;100048.00;5061170;28;20519;-72
2022/11/04 06:05:33;;;;;;;13.60;4.07;;;;;;;10.57;100.00;100042.88;5058378;28;20086;-73
2022/11/04 06:08:00;;;;;;;14.35;2.95;;;;;;;10.60;100.00;100039.28;5054808;28;20463;-72
2022/11/04 06:10:26;;;;;;;9.60;3.80;;;;;;;10.62;100.00;100045.97;5059648;28;20055;-72
2022/11/04 06:12:52;;;;;;;13.43;3.55;;;;;;;10.62;100.00;100047.94;5055908;28;20056;-72
2022/11/04 06:15:19;;;;;;;8.50;3.00;;;;;;;10.62;100.00;100043.19;5065534;28;20598;-71
2022/11/04 06:17:48;;;;;;;9.73;3.22;;;;;;;10.68;100.00;100049.03;5055847;28;20525;-72
2022/11/04 06:20:15;;;;;;;13.18;3.95;;;;;;;10.66;100.00;100055.00;5065992;28;20078;-71
2022/11/04 06:22:41;;;;;;;16.67;3.83;;;;;;;10.65;100.00;100050.66;5062494;28;20505;-72
2022/11/04 06:25:08;;;;;;;10.13;3.10;;;;;;;10.68;100.00;100051.81;5065740;28;20056;-72
2022/11/04 06:27:35;;;;;;;15.80;3.60;;;;;;;10.70;100.00;100049.44;5058293;28;20052;-72
2022/11/04 06:30:01;;;;;;;15.50;3.90;;;;;;;10.71;100.00;100051.78;5059265;28;20103;-72
2022/11/04 06:32:27;;;;;;;12.55;3.30;;;;;;;10.70;100.00;100050.19;5065506;28;20047;-73
2022/11/04 06:34:54;;;;;;;17.42;3.75;;;;;;;10.72;100.00;100052.56;5056145;28;20044;-71
2022/11/04 06:37:20;;;;;;;15.38;3.80;;;;;;;10.72;100.00;100063.63;5068126;28;20052;-73
2022/11/04 06:39:47;;;;;;;19.95;7.53;;;;;;;10.69;100.00;100067.25;5068889;28;20049;-73
2022/11/04 06:42:13;;;;;;;21.35;3.45;;;;;;;10.72;100.00;100063.63;5070927;28;20913;-73
2022/11/04 06:44:40;;;;;;;11.23;3.70;;;;;;;10.73;100.00;100065.97;5068476;28;20177;-71
2022/11/04 06:47:06;;;;;;;11.85;3.10;;;;;;;10.75;100.00;100074.66;5065524;28;20123;-74
2022/11/04 06:49:33;;;;;;;16.15;3.47;;;;;;;10.78;100.00;100079.38;5067652;28;20094;-71
2022/11/04 06:52:01;;;;;;;12.80;3.30;;;;;;;10.84;100.00;100076.94;5068881;28;20045;-74
2022/11/04 06:54:27;;;;;;;13.07;3.53;;;;;;;10.85;100.00;100095.88;5066339;28;20045;-72
2022/11/04 06:56:54;;;;;;;14.98;3.80;;;;;;;10.86;100.00;100093.91;5066103;28;20056;-72
2022/11/04 06:59:20;;;;;;;17.00;3.95;;;;;;;10.89;100.00;100093.06;5068674;28;20136;-72
2022/11/04 07:01:48;;;;;;;14.23;3.50;;;;;;;10.94;100.00;100092.63;5066654;28;20056;-71
2022/11/04 07:04:15;;;;;;;13.95;3.53;;;;;;;10.91;100.00;100087.91;5059897;28;20044;-71
2022/11/04 07:06:42;;;;;;;13.00;3.47;;;;;;;11.00;100.00;100100.03;5062435;28;20555;-71
2022/11/04 07:09:12;;;;;;;12.35;3.60;;;;;;;11.05;100.00;100096.03;5069265;28;20055;-71
2022/11/04 07:11:40;;;;;;;14.43;3.08;;;;;;;10.99;100.00;100092.13;5062790;28;20054;-73
2022/11/04 07:14:07;;;;;;;20.77;3.75;;;;;;;11.08;100.00;100092.44;5071859;28;20448;-72
2022/11/04 07:16:34;;;;;;;15.43;4.30;;;;;;;11.12;100.00;100105.03;5064549;28;20261;-72
2022/11/04 07:19:01;;;;;;;15.45;4.35;;;;;;;11.11;100.00;100097.13;5058273;28;20045;-72
2022/11/04 07:21:28;;;;;;;16.00;3.95;;;;;;;11.13;100.00;100100.28;5054243;28;20052;-72
2022/11/04 07:23:54;;;;;;;20.35;4.05;;;;;;;11.16;100.00;100110.50;5066434;28;20041;-70
2022/11/04 07:26:24;;;;;;;17.63;3.95;;;;;;;11.20;100.00;100114.03;5057593;28;20444;-72
2022/11/04 07:28:51;;;;;;;16.17;3.83;;;;;;;11.13;100.00;100112.13;5058122;28;20474;-71
2022/11/04 07:31:18;;;;;;;13.75;3.40;;;;;;;11.16;100.00;100107.75;5067729;28;20067;-74
2022/11/04 07:33:48;;;;;;;12.48;4.03;;;;;;;11.25;100.00;100119.91;5057614;28;20507;-73
2022/11/04 07:36:16;;;;;;;16.30;4.32;;;;;;;11.24;100.00;100123.09;5069005;28;20416;-73
2022/11/04 07:38:43;;;;;;;14.73;4.05;;;;;;;11.26;100.00;100117.91;5061739;28;20044;-72
2022/11/04 07:41:10;;;;;;;19.27;3.95;;;;;;;11.27;100.00;100127.78;5062264;28;20566;-72
2022/11/04 07:43:37;;;;;;;16.00;4.25;;;;;;;11.34;100.00;100144.31;5066362;28;20050;-72
2022/11/04 07:46:09;;;;;;;10.15;3.83;;;;;;;11.37;100.00;100144.25;5059235;28;20052;-72
2022/11/04 07:48:37;;;;;;;16.25;4.78;;;;;;;11.45;100.00;100145.75;5053259;28;20041;-72
2022/11/04 07:51:05;;;;;;;14.57;5.00;;;;;;;11.55;100.00;100155.09;5058698;28;20060;-72
2022/11/04 07:53:33;;;;;;;12.35;3.88;;;;;;;11.62;100.00;100155.03;5057575;28;20060;-72
2022/11/04 07:56:03;;;;;;;15.18;3.70;;;;;;;11.68;100.00;100153.38;5061607;28;20047;-72
2022/11/04 07:58:30;;;;;;;12.50;3.67;;;;;;;11.66;100.00;100159.31;5060567;28;20037;-72
2022/11/04 08:00:58;;;;;;;13.40;3.72;;;;;;;11.68;100.00;100170.75;5056153;28;20052;-72
2022/11/04 08:03:25;;;;;;;14.10;3.40;;;;;;;11.70;100.00;100175.88;5062926;28;20444;-72
2022/11/04 08:05:56;;;;;;;12.50;3.35;;;;;;;11.66;100.00;100177.91;5061957;28;20105;-72
2022/11/04 08:08:23;;;;;;;11.23;3.20;;;;;;;11.71;100.00;100178.22;5060074;28;20051;-74
2022/11/04 08:11:15;;;;;;;8.80;3.28;;;;;;;11.75;100.00;100175.44;5059999;28;20049;-72
2022/11/04 08:13:44;;;;;;;8.73;2.90;;;;;;;11.74;100.00;100179.41;5060175;28;20126;-71
2022/11/04 08:16:14;;;;;;;9.07;2.53;;;;;;;11.80;100.00;100172.16;5065154;28;20055;-72
2022/11/04 08:18:42;;;;;;;16.67;3.05;;;;;;;11.89;100.00;100180.75;5066492;28;20040;-73
2022/11/04 08:21:09;;;;;;;13.38;2.95;;;;;;;12.00;100.00;100175.81;5055129;28;20448;-71
2022/11/04 08:23:36;;;;;;;5.95;1.60;;;;;;;12.00;100.00;100165.53;5051747;28;20064;-72
2022/11/04 08:26:08;;;;;;;13.82;3.17;;;;;;;12.13;100.00;100168.50;5060447;28;20045;-70
2022/11/04 08:28:34;;;;;;;17.45;4.10;;;;;;;12.26;100.00;100166.69;5051638;28;20051;-71
2022/11/04 08:31:12;;;;;;;11.68;2.60;;;;;;;12.24;100.00;100169.91;5062503;28;20048;-72
2022/11/04 08:33:39;;;;;;;9.88;2.50;;;;;;;12.31;100.00;100168.97;5064877;28;20049;-72
2022/11/04 08:36:31;;;;;;;18.00;3.55;;;;;;;12.33;100.00;100164.59;5060884;28;20051;-71
2022/11/04 08:38:58;;;;;;;2.30;0.98;;;;;;;12.38;100.00;100169.66;5056594;28;20119;-70
2022/11/04 08:41:28;;;;;;;10.60;2.83;;;;;;;12.44;100.00;100176.28;5063424;28;20048;-72
2022/11/04 08:43:58;;;;;;;12.10;4.45;;;;;;;12.53;100.00;100186.84;5063276;28;20053;-73
2022/11/04 08:46:31;;;;;;;9.63;3.20;;;;;;;12.63;100.00;100194.19;5064376;28;20048;-73
2022/11/04 08:48:58;;;;;;;12.45;2.83;;;;;;;12.55;100.00;100195.53;5065335;28;20045;-73
2022/11/04 08:51:26;;;;;;;9.55;3.03;;;;;;;12.59;100.00;100204.59;5064773;28;20064;-72
2022/11/04 08:53:53;;;;;;;13.00;3.10;;;;;;;12.68;100.00;100194.50;5059179;28;20045;-72
2022/11/04 08:56:26;;;;;;;9.15;2.67;;;;;;;12.58;100.00;100191.91;5067006;28;20049;-71
2022/11/04 08:58:53;;;;;;;13.02;3.33;;;;;;;12.54;100.00;100196.72;5065105;28;20052;-73
2022/11/04 09:01:22;;;;;;;11.48;3.30;;;;;;;12.48;100.00;100198.41;5063160;28;20052;-71
2022/11/04 09:03:49;;;;;;;8.23;2.72;;;;;;;12.49;100.00;100209.09;5062954;28;20520;-71
2022/11/04 09:06:20;;;;;;;10.48;3.45;;;;;;;12.47;100.00;100208.75;5067023;28;20048;-73
2022/11/04 09:08:47;;;;;;;17.35;3.25;;;;;;;12.50;100.00;100210.69;5061918;28;20079;-73
2022/11/04 09:11:15;;;;;;;9.30;2.72;;;;;;;12.52;100.00;100210.25;5059171;28;20410;-73
2022/11/04 09:13:42;;;;;;;19.58;3.67;;;;;;;12.52;100.00;100208.25;5057873;28;20044;-73
2022/11/04 09:16:11;;;;;;;15.32;3.28;;;;;;;12.57;100.00;100205.00;5062060;28;20801;-74
2022/11/04 09:18:37;;;;;;;9.05;2.40;;;;;;;12.56;100.00;100208.97;5063549;28;20051;-71
2022/11/04 09:21:06;;;;;;;4.72;1.77;;;;;;;12.34;100.00;100190.34;5059605;28;20121;-73
2022/11/04 09:23:32;;;;;;;8.98;2.67;;;;;;;12.48;100.00;100203.97;5063053;28;20064;-73
2022/11/04 09:26:05;;;;;;;9.05;2.75;;;;;;;12.48;100.00;100209.50;5054536;28;20049;-73
2022/11/04 09:28:32;;;;;;;6.55;2.30;;;;;;;12.47;100.00;100219.06;5060294;28;20045;-73
2022/11/04 09:30:58;;;;;;;14.50;3.30;;;;;;;12.48;100.00;100226.16;5058567;28;20102;-72
2022/11/04 09:33:25;;;;;;;11.55;3.08;;;;;;;12.46;100.00;100223.03;5067177;28;20497;-73
2022/11/04 09:35:57;;;;;;;5.97;2.20;;;;;;;12.41;100.00;100226.28;5061400;28;20437;-73
2022/11/04 09:38:24;;;;;;;17.75;3.90;;;;;;;12.49;100.00;100222.19;5067323;28;20304;-72
2022/11/04 09:40:51;;;;;;;12.82;2.70;;;;;;;12.47;100.00;100219.84;5057089;28;20055;-73
2022/11/04 09:43:36;;;;;;;12.38;2.85;;;;;;;12.52;100.00;100218.59;5035328;28;20049;-74
2022/11/04 09:46:04;;;;;;;11.20;2.70;;;;;;;12.55;100.00;100218.50;5038022;28;21602;-74
2022/11/04 09:48:52;;;;;;;19.02;3.17;;;;;;;12.57;100.00;100226.41;5043068;28;20052;-73
2022/11/04 09:51:24;;;;;;;10.63;2.58;;;;;;;12.60;100.00;100223.59;5047353;28;20045;-73
2022/11/04 09:54:39;;;;;;;13.55;3.70;;;;;;;12.70;100.00;100230.94;5038931;28;20139;-72
2022/11/04 09:57:16;;;;;;;19.88;3.75;;;;;;;12.68;100.00;100227.00;5037496;28;20056;-74
2022/11/04 09:59:43;;;;;;;17.60;3.47;;;;;;;12.65;100.00;100225.06;5036310;28;20166;-72
2022/11/04 10:02:20;;;;;;;10.93;3.42;;;;;;;12.69;100.00;100226.59;5037809;28;20060;-72
2022/11/04 10:05:01;;;;;;;9.23;3.67;;;;;;;12.69;100.00;100223.81;5036877;28;20110;-72
2022/11/04 10:07:30;;;;;;;15.43;3.20;;;;;;;12.73;100.00;100218.97;5037165;28;20056;-72
2022/11/04 10:10:38;;;;;;;12.90;2.90;;;;;;;12.78;100.00;100226.03;5033058;28;20053;-72
2022/11/04 10:13:14;;;;;;;6.22;2.20;;;;;;;12.85;100.00;100234.25;5035557;28;20060;-74
2022/11/04 10:16:13;;;;;;;17.08;3.97;;;;;;;12.95;100.00;100233.25;5036195;28;20052;-72
2022/11/04 10:19:05;;;;;;;15.25;4.00;;;;;;;13.09;100.00;100237.81;5037368;28;20059;-72
2022/11/04 10:21:45;;;;;;;10.77;3.85;;;;;;;13.15;100.00;100239.66;5037016;28;20094;-72
2022/11/04 10:24:24;;;;;;;15.00;3.53;;;;;;;13.39;100.00;100243.94;5036973;28;20044;-72
2022/11/04 10:27:02;;;;;;;18.60;4.07;;;;;;;13.57;100.00;100238.03;5037792;28;20052;-72
2022/11/04 10:29:40;;;;;;;7.22;2.75;;;;;;;13.65;100.00;100237.47;5035755;28;20048;-72
2022/11/04 10:32:16;;;;;;;13.90;3.45;;;;;;;13.91;100.00;100235.72;5044220;28;20133;-72
2022/11/04 10:35:09;;;;;;;8.40;2.90;;;;;;;14.01;100.00;100232.69;5048602;28;20056;-75
2022/11/04 10:37:36;;;;;;;10.40;1.83;;;;;;;14.15;100.00;100235.16;5044177;28;20059;-72
2022/11/04 10:40:23;;;;;;;5.38;1.52;;;;;;;14.07;100.00;100255.22;5041664;28;20908;-75
2022/11/04 10:42:51;;;;;;;10.40;2.85;;;;;;;14.15;100.00;100245.50;5038878;28;20118;-73
2022/11/04 10:45:21;;;;;;;11.32;2.90;;;;;;;14.23;100.00;100252.47;5040035;28;20596;-73
2022/11/04 10:48:21;;;;;;;16.52;3.22;;;;;;;14.40;100.00;100256.84;5043835;28;20120;-72
2022/11/04 10:50:53;;;;;;;10.75;2.97;;;;;;;14.51;100.00;100249.81;5038919;28;20057;-73
2022/11/04 10:53:23;;;;;;;12.88;3.50;;;;;;;14.47;100.00;100242.75;5046553;28;20071;-73
2022/11/04 10:56:17;;;;;;;11.82;3.08;;;;;;;14.55;100.00;100247.72;5040549;28;20052;-73
2022/11/04 10:58:45;;;;;;;11.45;2.97;;;;;;;14.21;100.00;100250.09;5035513;28;20045;-73
2022/11/04 11:01:30;;;;;;;13.15;3.03;;;;;;;14.02;100.00;100253.75;5030969;28;20048;-73
2022/11/04 11:03:58;;;;;;;3.78;1.67;;;;;;;13.91;100.00;100264.28;5039581;28;20055;-74
2022/11/04 11:06:33;;;;;;;12.43;2.90;;;;;;;14.09;100.00;100255.56;5032666;28;20048;-73
2022/11/04 11:09:18;;;;;;;7.82;2.85;;;;;;;14.04;100.00;100248.50;5041483;28;20059;-74
2022/11/04 11:11:48;;;;;;;12.80;3.40;;;;;;;14.22;100.00;100243.38;5043313;28;20060;-74
2022/11/04 11:14:28;;;;;;;12.65;3.05;;;;;;;14.22;100.00;100257.28;5038053;28;20091;-74
2022/11/04 11:16:55;;;;;;;13.32;3.42;;;;;;;14.25;100.00;100261.19;5044772;28;20048;-72
2022/11/04 11:19:24;;;;;;;15.32;3.63;;;;;;;14.23;100.00;100271.97;5039486;28;20783;-74
2022/11/04 11:21:53;;;;;;;9.75;3.00;;;;;;;14.28;100.00;100277.03;5038346;28;20048;-73
2022/11/04 11:24:23;;;;;;;11.93;3.70;;;;;;;14.12;100.00;100277.75;5041705;28;20782;-76
2022/11/04 11:26:53;;;;;;;9.68;2.55;;;;;;;13.96;100.00;100282.47;5046908;28;20064;-75
2022/11/04 11:29:41;;;;;;;4.22;1.50;;;;;;;13.73;100.00;100288.91;5037419;28;20772;-75
2022/11/04 11:32:33;;;;;;;15.45;3.80;;;;;;;13.87;100.00;100288.63;5040188;28;20057;-74
2022/11/04 11:35:02;;;;;;;14.35;3.83;;;;;;;13.76;100.00;100288.06;5044952;28;20053;-74
2022/11/04 11:37:34;;;;;;;21.07;3.50;;;;;;;13.83;100.00;100284.34;5038439;28;20080;-72
2022/11/04 11:40:01;;;;;;;19.77;3.78;;;;;;;13.85;100.00;100277.16;5036031;28;20053;-74
2022/11/04 11:42:27;;;;;;;17.15;3.97;;;;;;;13.91;100.00;100280.97;5036093;28;20056;-74
2022/11/04 11:44:57;;;;;;;14.65;4.10;;;;;;;13.86;100.00;100281.50;5033985;28;20056;-74
2022/11/04 11:47:23;;;;;;;16.33;4.70;;;;;;;13.96;100.00;100294.38;5045125;28;20505;-74
2022/11/04 11:50:14;;;;;;;12.98;4.40;;;;;;;14.01;100.00;100291.09;5038519;28;20052;-73
2022/11/04 11:52:42;;;;;;;15.77;4.95;;;;;;;14.12;100.00;100302.00;5038692;28;20107;-73
2022/11/04 11:55:15;;;;;;;19.67;6.82;;;;;;;14.13;100.00;100303.56;5043807;28;20060;-73
2022/11/04 11:58:00;;;;;;;20.55;7.18;;;;;;;14.16;100.00;100294.34;5036143;28;20871;-73
2022/11/04 12:01:03;;;;;;;20.40;7.47;;;;;;;14.21;100.00;100304.97;5042423;28;20165;-73
2022/11/04 12:03:44;;;;;;;23.73;7.68;;;;;;;14.23;100.00;100300.56;5040225;28;20052;-73
2022/11/04 12:06:53;;;;;;;22.38;8.27;;;;;;;14.22;100.00;100299.03;5038270;28;20107;-73
2022/11/04 12:10:01;;;;;;;20.27;7.85;;;;;;;14.26;100.00;100308.06;5042862;28;20163;-73